• Join FlightAware (Why Join?)
  • Login
  • US Flag GB Flag 
06:26 EDT


 

Airport Tracker/Info


-or-


 

Live Flight TrackerFlight Track Log ✈ LYM752 ✈ 17-Aug-2013 ✈ KTAD - KAPA

Flight Track Log - Related Links

Times and Time Zones

All times are in EDT time to prevent confusion due to time zone crossing. See the LYM752 flight status page for this flight to view local times or setup timezone preferences in your user account.

Time Position Orientation Groundspeed Altitude Reporting Facility
EDT Latitude Longitude Course Direction KTS MPH feet Rate Location/Type
13:44 37.3828 -104.3553 351° North 125 144 8,900  Level Denver Center
13:45 37.4167 -104.3664 345° North 127 146 9,400 480 Climbing Denver Center
13:46 37.4581 -104.3778 348° North 133 153 10,000 300 Climbing Denver Center
13:47 37.4956 -104.3892 346° North 138 159 10,100  Climbing Denver Center
13:48 37.5450 -104.4022 348° North 152 175 10,100  Level Denver Center
13:49 37.5872 -104.4153 346° North 159 183 10,100  Level Denver Center
13:50 37.5332 -104.3975 351° North  Level FlightAware Approximate
13:50 37.6319 -104.4267 349° North 165 190 10,100  Level Denver Center
13:52 37.6856 -104.4361 352° North 170 196 10,100  Level Denver Center
13:53 37.7467 -104.4428 355° North 172 198 10,100  Level Denver Center
13:54 37.7939 -104.4475 355° North 174 200 10,100  Level Denver Center
13:55 37.8328 -104.4492 358° North 174 200 10,100  Level Denver Center
13:56 37.8942 -104.4619 351° North 178 205 10,100  Level Denver Center
13:57 37.9383 -104.4781 344° North 175 201 10,100  Level Denver Center
13:58 37.9914 -104.4897 350° North 173 199 10,200  Climbing Denver Center
13:59 38.0372 -104.4969 353° North 172 198 10,200 -60 Level Denver Center
14:00 38.0914 -104.5111 348° North 176 203 10,100  Descending Denver Center
14:01 38.1372 -104.5200 351° North 175 201 10,200  Climbing Denver Center
14:02 38.1903 -104.5322 350° North 174 200 10,100 -60 Descending Denver Center
14:03 38.2367 -104.5436 349° North 175 201 10,100  Level Denver Center
14:04 38.2894 -104.5572 349° North 175 201 10,100 240 Level Denver Center
14:05 38.3350 -104.5650 352° North 173 199 10,600 420 Climbing Denver Center
14:06 38.3772 -104.5733 351° North 148 170 11,000 180 Climbing Denver Center
14:07 38.4108 -104.5850 345° North 160 184 11,000  Level Denver Center
14:08 38.4686 -104.5961 351° North 161 185 11,100  Climbing Denver Center
14:09 38.5133 -104.6067 350° North 168 193 11,000  Descending Denver Center
14:10 38.5608 -104.6192 348° North 170 196 11,100  Climbing Denver Center
14:11 38.6200 -104.6317 351° North 172 198 11,000 -60 Descending Denver Center
14:13 38.6719 -104.6450 349° North 171 197 11,000  Level Denver Center
14:14 38.7164 -104.6561 349° North 170 196 11,000  Level Denver Center
14:14 38.7442 -104.6656 345° North 169 194 11,000  Level Denver Center
14:15 38.7694 -104.6692 354° North 173 199 11,000  Level Denver Center
14:16 38.8231 -104.6822 349° North 174 200 11,100  Climbing Denver Center
14:17 38.8736 -104.6953 349° North 170 196 11,000 -60 Descending Denver Center
14:18 38.9192 -104.7042 351° North 170 196 11,000 -60 Level Denver Center
14:19 38.9650 -104.7156 349° North 167 192 10,900 -480 Descending Denver Center
14:20 39.0197 -104.7306 348° North 207 238 10,100 -480 Descending Denver Center
14:21 39.0831 -104.7497 347° North 192 221 10,000 -120 Descending Denver Center
14:22 39.1339 -104.7656 346° North 184 212 9,900  Descending Denver Center
14:23 39.1828 -104.7936 336° Northwest 182 209 10,000 -60 Climbing Denver Center
14:24 39.2306 -104.8208 336° Northwest 187 215 9,800 -480 Descending Denver Center
14:25 39.2858 -104.8464 340° North 198 228 9,100 -420 Descending Denver Center
14:26 39.3372 -104.8397 North 188 216 9,000 -180 Descending Denver Center
14:27 39.3881 -104.8411 359° North 170 196 8,800 -420 Descending Denver Center
14:28 39.4375 -104.8456 356° North 177 204 8,200 -780 Descending Denver Center
14:29 39.4889 -104.8464 359° North 170 196 7,200 -780 Descending Denver Center
14:30 39.5286 -104.8478 358° North 144 166 6,500 -600 Descending Denver Center
14:32 39.5642 -104.8497 358° North 112 129 5,800 -600 Descending Denver Center
14:34 39.5701 -104.8493 North  Level Estimated
14:41 39.5701 -104.8493 72° East  Level Estimated